sensor_id;sensor_type;location;lat;lon;timestamp;temperature;humidity
15099;DHT22;33900;53.640;9.942;2023-03-29T00:01:47;8.90;79.70
15099;DHT22;33900;53.640;9.942;2023-03-29T00:04:18;8.90;79.80
15099;DHT22;33900;53.640;9.942;2023-03-29T00:09:54;8.80;80.10
15099;DHT22;33900;53.640;9.942;2023-03-29T00:12:30;8.80;80.10
15099;DHT22;33900;53.640;9.942;2023-03-29T00:15:03;8.80;80.10
15099;DHT22;33900;53.640;9.942;2023-03-29T00:17:29;8.90;80.10
15099;DHT22;33900;53.640;9.942;2023-03-29T00:20:01;8.90;80.10
15099;DHT22;33900;53.640;9.942;2023-03-29T00:22:40;8.90;80.00
15099;DHT22;33900;53.640;9.942;2023-03-29T00:25:10;8.90;80.00
15099;DHT22;33900;53.640;9.942;2023-03-29T00:27:36;8.90;80.00
15099;DHT22;33900;53.640;9.942;2023-03-29T00:30:08;9.00;79.90
15099;DHT22;33900;53.640;9.942;2023-03-29T00:32:37;9.00;79.90
15099;DHT22;33900;53.640;9.942;2023-03-29T00:35:07;9.00;79.80
15099;DHT22;33900;53.640;9.942;2023-03-29T00:40:45;8.90;79.80
15099;DHT22;33900;53.640;9.942;2023-03-29T00:43:27;8.90;79.90
15099;DHT22;33900;53.640;9.942;2023-03-29T00:46:02;8.90;80.00
15099;DHT22;33900;53.640;9.942;2023-03-29T00:48:34;8.90;80.10
15099;DHT22;33900;53.640;9.942;2023-03-29T00:51:04;8.80;80.20
15099;DHT22;33900;53.640;9.942;2023-03-29T00:53:41;8.80;80.30
15099;DHT22;33900;53.640;9.942;2023-03-29T00:56:34;8.80;80.50
15099;DHT22;33900;53.640;9.942;2023-03-29T00:59:09;8.80;80.60
15099;DHT22;33900;53.640;9.942;2023-03-29T01:04:58;8.70;80.90
15099;DHT22;33900;53.640;9.942;2023-03-29T01:07:44;8.70;81.00
15099;DHT22;33900;53.640;9.942;2023-03-29T01:10:14;8.70;81.10
15099;DHT22;33900;53.640;9.942;2023-03-29T01:12:49;8.70;81.20
15099;DHT22;33900;53.640;9.942;2023-03-29T01:15:17;8.60;82.10
15099;DHT22;33900;53.640;9.942;2023-03-29T01:17:48;8.60;81.40
15099;DHT22;33900;53.640;9.942;2023-03-29T01:20:39;8.60;81.40
15099;DHT22;33900;53.640;9.942;2023-03-29T01:28:46;8.50;81.70
15099;DHT22;33900;53.640;9.942;2023-03-29T01:31:30;8.50;81.80
15099;DHT22;33900;53.640;9.942;2023-03-29T01:34:11;8.50;81.90
15099;DHT22;33900;53.640;9.942;2023-03-29T01:36:41;8.50;82.00
15099;DHT22;33900;53.640;9.942;2023-03-29T01:39:14;8.50;82.10
15099;DHT22;33900;53.640;9.942;2023-03-29T01:44:31;8.50;82.20
15099;DHT22;33900;53.640;9.942;2023-03-29T01:47:03;8.50;82.20
15099;DHT22;33900;53.640;9.942;2023-03-29T01:49:39;8.50;82.20
15099;DHT22;33900;53.640;9.942;2023-03-29T01:52:14;8.50;82.30
15099;DHT22;33900;53.640;9.942;2023-03-29T01:54:55;8.50;82.30
15099;DHT22;33900;53.640;9.942;2023-03-29T01:57:29;8.40;82.30
15099;DHT22;33900;53.640;9.942;2023-03-29T01:59:59;8.40;82.40
15099;DHT22;33900;53.640;9.942;2023-03-29T02:02:41;8.40;82.40
15099;DHT22;33900;53.640;9.942;2023-03-29T02:05:10;8.40;82.50
15099;DHT22;33900;53.640;9.942;2023-03-29T02:07:38;8.40;82.70
15099;DHT22;33900;53.640;9.942;2023-03-29T02:10:05;8.30;82.60
15099;DHT22;33900;53.640;9.942;2023-03-29T02:12:31;8.30;82.80
15099;DHT22;33900;53.640;9.942;2023-03-29T02:14:59;8.30;82.90
15099;DHT22;33900;53.640;9.942;2023-03-29T02:17:27;8.30;82.90
15099;DHT22;33900;53.640;9.942;2023-03-29T02:22:27;8.30;83.00
15099;DHT22;33900;53.640;9.942;2023-03-29T02:24:54;8.30;83.10
15099;DHT22;33900;53.640;9.942;2023-03-29T02:27:24;8.30;83.10
15099;DHT22;33900;53.640;9.942;2023-03-29T02:29:50;8.30;83.10
15099;DHT22;33900;53.640;9.942;2023-03-29T02:32:19;8.30;83.20
15099;DHT22;33900;53.640;9.942;2023-03-29T02:35:08;8.20;83.20
15099;DHT22;33900;53.640;9.942;2023-03-29T02:37:38;8.20;83.30
15099;DHT22;33900;53.640;9.942;2023-03-29T02:40:07;8.20;83.40
15099;DHT22;33900;53.640;9.942;2023-03-29T02:42:40;8.20;83.50
15099;DHT22;33900;53.640;9.942;2023-03-29T02:45:08;8.20;83.50
15099;DHT22;33900;53.640;9.942;2023-03-29T02:47:52;8.20;83.60
15099;DHT22;33900;53.640;9.942;2023-03-29T02:50:18;8.20;83.60
15099;DHT22;33900;53.640;9.942;2023-03-29T02:52:52;8.20;83.60
15099;DHT22;33900;53.640;9.942;2023-03-29T02:58:49;8.20;83.70
15099;DHT22;33900;53.640;9.942;2023-03-29T03:01:15;8.20;83.70
15099;DHT22;33900;53.640;9.942;2023-03-29T03:03:41;8.10;83.60
15099;DHT22;33900;53.640;9.942;2023-03-29T03:06:08;8.10;83.70
15099;DHT22;33900;53.640;9.942;2023-03-29T03:08:33;8.10;83.70
15099;DHT22;33900;53.640;9.942;2023-03-29T03:10:59;8.10;83.60
15099;DHT22;33900;53.640;9.942;2023-03-29T03:13:24;8.20;83.70
15099;DHT22;33900;53.640;9.942;2023-03-29T03:15:50;8.10;83.60
15099;DHT22;33900;53.640;9.942;2023-03-29T03:18:16;8.10;83.60
15099;DHT22;33900;53.640;9.942;2023-03-29T03:20:42;8.10;83.50
15099;DHT22;33900;53.640;9.942;2023-03-29T03:23:11;8.10;83.50
15099;DHT22;33900;53.640;9.942;2023-03-29T03:25:36;8.10;83.50
15099;DHT22;33900;53.640;9.942;2023-03-29T03:28:02;8.10;83.50
15099;DHT22;33900;53.640;9.942;2023-03-29T03:30:28;8.10;83.50
15099;DHT22;33900;53.640;9.942;2023-03-29T03:33:13;8.00;83.50
15099;DHT22;33900;53.640;9.942;2023-03-29T03:35:57;8.10;83.60
15099;DHT22;33900;53.640;9.942;2023-03-29T03:38:31;8.10;83.50
15099;DHT22;33900;53.640;9.942;2023-03-29T03:40:59;8.10;83.50
15099;DHT22;33900;53.640;9.942;2023-03-29T03:43:26;8.00;83.50
15099;DHT22;33900;53.640;9.942;2023-03-29T03:45:55;8.00;83.50
15099;DHT22;33900;53.640;9.942;2023-03-29T03:48:23;8.00;83.50
15099;DHT22;33900;53.640;9.942;2023-03-29T03:51:03;7.90;83.40
15099;DHT22;33900;53.640;9.942;2023-03-29T03:53:32;8.00;83.50
15099;DHT22;33900;53.640;9.942;2023-03-29T03:56:18;8.00;83.40
15099;DHT22;33900;53.640;9.942;2023-03-29T03:59:03;8.00;83.50
15099;DHT22;33900;53.640;9.942;2023-03-29T04:01:35;8.00;83.40
15099;DHT22;33900;53.640;9.942;2023-03-29T04:04:13;8.00;83.30
15099;DHT22;33900;53.640;9.942;2023-03-29T04:06:49;8.00;83.30
15099;DHT22;33900;53.640;9.942;2023-03-29T04:09:47;8.00;83.30
15099;DHT22;33900;53.640;9.942;2023-03-29T04:12:48;8.00;83.40
15099;DHT22;33900;53.640;9.942;2023-03-29T04:15:14;8.00;83.40
15099;DHT22;33900;53.640;9.942;2023-03-29T04:17:47;8.10;83.40
15099;DHT22;33900;53.640;9.942;2023-03-29T04:20:25;8.00;83.30
15099;DHT22;33900;53.640;9.942;2023-03-29T04:22:51;8.10;84.10
15099;DHT22;33900;53.640;9.942;2023-03-29T04:25:18;8.20;83.20
15099;DHT22;33900;53.640;9.942;2023-03-29T04:27:46;8.20;83.10
15099;DHT22;33900;53.640;9.942;2023-03-29T04:30:22;8.20;83.00
15099;DHT22;33900;53.640;9.942;2023-03-29T04:33:17;8.20;83.00
15099;DHT22;33900;53.640;9.942;2023-03-29T04:35:48;8.30;82.90
15099;DHT22;33900;53.640;9.942;2023-03-29T04:38:16;8.30;82.90
15099;DHT22;33900;53.640;9.942;2023-03-29T04:40:43;8.30;82.90
15099;DHT22;33900;53.640;9.942;2023-03-29T04:43:26;8.30;82.90
15099;DHT22;33900;53.640;9.942;2023-03-29T04:46:03;8.30;82.90
15099;DHT22;33900;53.640;9.942;2023-03-29T04:48:50;8.30;82.80
15099;DHT22;33900;53.640;9.942;2023-03-29T04:51:28;8.30;82.80
15099;DHT22;33900;53.640;9.942;2023-03-29T04:53:55;8.30;82.70
15099;DHT22;33900;53.640;9.942;2023-03-29T04:56:21;8.30;82.60
15099;DHT22;33900;53.640;9.942;2023-03-29T04:59:20;8.30;82.70
15099;DHT22;33900;53.640;9.942;2023-03-29T05:01:45;8.40;82.70
15099;DHT22;33900;53.640;9.942;2023-03-29T05:04:11;8.40;82.70
15099;DHT22;33900;53.640;9.942;2023-03-29T05:06:46;8.30;82.60
15099;DHT22;33900;53.640;9.942;2023-03-29T05:09:11;8.40;82.50
15099;DHT22;33900;53.640;9.942;2023-03-29T05:11:45;8.40;82.50
15099;DHT22;33900;53.640;9.942;2023-03-29T05:14:12;8.40;82.40
15099;DHT22;33900;53.640;9.942;2023-03-29T05:16:37;8.40;82.30
15099;DHT22;33900;53.640;9.942;2023-03-29T05:19:04;8.40;82.30
15099;DHT22;33900;53.640;9.942;2023-03-29T05:21:33;8.40;82.40
15099;DHT22;33900;53.640;9.942;2023-03-29T05:24:02;8.40;82.40
15099;DHT22;33900;53.640;9.942;2023-03-29T05:26:44;8.40;82.40
15099;DHT22;33900;53.640;9.942;2023-03-29T05:29:12;8.40;82.30
15099;DHT22;33900;53.640;9.942;2023-03-29T05:31:40;8.40;82.30
15099;DHT22;33900;53.640;9.942;2023-03-29T05:34:07;8.50;82.40
15099;DHT22;33900;53.640;9.942;2023-03-29T05:36:36;8.50;82.30
15099;DHT22;33900;53.640;9.942;2023-03-29T05:39:02;8.50;82.20
15099;DHT22;33900;53.640;9.942;2023-03-29T05:41:29;8.50;82.20
15099;DHT22;33900;53.640;9.942;2023-03-29T05:44:13;8.60;82.20
15099;DHT22;33900;53.640;9.942;2023-03-29T05:46:44;8.60;82.20
15099;DHT22;33900;53.640;9.942;2023-03-29T05:49:14;8.60;81.90
15099;DHT22;33900;53.640;9.942;2023-03-29T05:52:00;8.60;81.90
15099;DHT22;33900;53.640;9.942;2023-03-29T05:54:29;8.70;82.00
15099;DHT22;33900;53.640;9.942;2023-03-29T05:56:55;8.70;81.90
15099;DHT22;33900;53.640;9.942;2023-03-29T05:59:21;8.70;81.90
15099;DHT22;33900;53.640;9.942;2023-03-29T06:01:48;8.60;81.90
15099;DHT22;33900;53.640;9.942;2023-03-29T06:04:17;8.60;81.90
15099;DHT22;33900;53.640;9.942;2023-03-29T06:06:51;8.60;82.00
15099;DHT22;33900;53.640;9.942;2023-03-29T06:09:18;8.60;81.90
15099;DHT22;33900;53.640;9.942;2023-03-29T06:11:58;8.70;81.90
15099;DHT22;33900;53.640;9.942;2023-03-29T06:14:39;8.70;82.00
15099;DHT22;33900;53.640;9.942;2023-03-29T06:17:24;8.70;82.70
15099;DHT22;33900;53.640;9.942;2023-03-29T06:19:51;8.70;81.90
15099;DHT22;33900;53.640;9.942;2023-03-29T06:22:21;8.80;81.80
15099;DHT22;33900;53.640;9.942;2023-03-29T06:24:46;8.80;81.80
15099;DHT22;33900;53.640;9.942;2023-03-29T06:27:21;8.80;81.80
15099;DHT22;33900;53.640;9.942;2023-03-29T06:29:48;8.80;81.90
15099;DHT22;33900;53.640;9.942;2023-03-29T06:32:14;8.90;82.00
15099;DHT22;33900;53.640;9.942;2023-03-29T06:34:49;8.80;81.90
15099;DHT22;33900;53.640;9.942;2023-03-29T06:37:35;8.80;81.90
15099;DHT22;33900;53.640;9.942;2023-03-29T06:40:12;8.90;82.00
15099;DHT22;33900;53.640;9.942;2023-03-29T06:42:42;8.90;82.00
15099;DHT22;33900;53.640;9.942;2023-03-29T06:45:30;8.90;82.00
15099;DHT22;33900;53.640;9.942;2023-03-29T06:47:59;8.90;81.80
15099;DHT22;33900;53.640;9.942;2023-03-29T06:50:25;8.90;81.80
15099;DHT22;33900;53.640;9.942;2023-03-29T06:53:10;8.90;81.80
15099;DHT22;33900;53.640;9.942;2023-03-29T06:55:38;9.00;81.80
15099;DHT22;33900;53.640;9.942;2023-03-29T06:58:23;9.00;81.70
15099;DHT22;33900;53.640;9.942;2023-03-29T07:00:50;9.00;81.70
15099;DHT22;33900;53.640;9.942;2023-03-29T07:03:28;9.00;81.60
15099;DHT22;33900;53.640;9.942;2023-03-29T07:06:03;9.00;81.60
15099;DHT22;33900;53.640;9.942;2023-03-29T07:08:35;9.10;81.40
15099;DHT22;33900;53.640;9.942;2023-03-29T07:11:09;9.10;81.50
15099;DHT22;33900;53.640;9.942;2023-03-29T07:13:52;9.10;81.40
15099;DHT22;33900;53.640;9.942;2023-03-29T07:16:19;9.10;81.40
15099;DHT22;33900;53.640;9.942;2023-03-29T07:18:56;9.10;81.40
15099;DHT22;33900;53.640;9.942;2023-03-29T07:21:45;9.10;81.30
15099;DHT22;33900;53.640;9.942;2023-03-29T07:24:11;9.10;81.20
15099;DHT22;33900;53.640;9.942;2023-03-29T07:26:37;9.10;81.30
15099;DHT22;33900;53.640;9.942;2023-03-29T07:29:04;9.20;82.20
15099;DHT22;33900;53.640;9.942;2023-03-29T07:31:29;9.20;81.50
15099;DHT22;33900;53.640;9.942;2023-03-29T07:34:09;9.20;81.70
15099;DHT22;33900;53.640;9.942;2023-03-29T07:36:38;9.20;81.70
15099;DHT22;33900;53.640;9.942;2023-03-29T07:39:04;9.20;82.00
15099;DHT22;33900;53.640;9.942;2023-03-29T07:41:33;9.10;82.00
15099;DHT22;33900;53.640;9.942;2023-03-29T07:44:06;9.20;82.20
15099;DHT22;33900;53.640;9.942;2023-03-29T07:46:36;9.20;82.20
15099;DHT22;33900;53.640;9.942;2023-03-29T07:49:02;9.20;82.00
15099;DHT22;33900;53.640;9.942;2023-03-29T07:51:28;9.20;81.90
15099;DHT22;33900;53.640;9.942;2023-03-29T07:54:05;9.20;82.80
15099;DHT22;33900;53.640;9.942;2023-03-29T07:56:51;9.30;82.00
15099;DHT22;33900;53.640;9.942;2023-03-29T07:59:29;9.30;82.10
15099;DHT22;33900;53.640;9.942;2023-03-29T08:02:12;9.30;82.00
15099;DHT22;33900;53.640;9.942;2023-03-29T08:04:42;9.40;81.90
15099;DHT22;33900;53.640;9.942;2023-03-29T08:07:14;9.40;81.80
15099;DHT22;33900;53.640;9.942;2023-03-29T08:09:59;9.40;82.60
15099;DHT22;33900;53.640;9.942;2023-03-29T08:12:47;9.50;81.80
15099;DHT22;33900;53.640;9.942;2023-03-29T08:15:15;9.50;81.80
15099;DHT22;33900;53.640;9.942;2023-03-29T08:17:41;9.50;81.90
15099;DHT22;33900;53.640;9.942;2023-03-29T08:20:08;9.50;81.80
15099;DHT22;33900;53.640;9.942;2023-03-29T08:22:37;9.60;81.80
15099;DHT22;33900;53.640;9.942;2023-03-29T08:25:05;9.60;81.80
15099;DHT22;33900;53.640;9.942;2023-03-29T08:27:37;9.60;81.70
15099;DHT22;33900;53.640;9.942;2023-03-29T08:30:04;9.60;81.70
15099;DHT22;33900;53.640;9.942;2023-03-29T08:32:34;9.70;81.70
15099;DHT22;33900;53.640;9.942;2023-03-29T08:35:00;9.70;81.80
15099;DHT22;33900;53.640;9.942;2023-03-29T08:37:35;9.70;81.80
15099;DHT22;33900;53.640;9.942;2023-03-29T08:40:02;9.70;81.60
15099;DHT22;33900;53.640;9.942;2023-03-29T08:50:52;9.90;81.50
15099;DHT22;33900;53.640;9.942;2023-03-29T08:53:21;9.80;81.40
15099;DHT22;33900;53.640;9.942;2023-03-29T08:56:06;9.90;81.40
15099;DHT22;33900;53.640;9.942;2023-03-29T08:58:48;9.90;81.50
15099;DHT22;33900;53.640;9.942;2023-03-29T09:01:15;9.90;81.40
15099;DHT22;33900;53.640;9.942;2023-03-29T09:03:52;10.00;81.30
15099;DHT22;33900;53.640;9.942;2023-03-29T09:06:33;10.00;81.40
15099;DHT22;33900;53.640;9.942;2023-03-29T09:09:13;10.20;81.50
15099;DHT22;33900;53.640;9.942;2023-03-29T09:16:41;10.10;81.30
15099;DHT22;33900;53.640;9.942;2023-03-29T09:21:58;10.10;81.30
15099;DHT22;33900;53.640;9.942;2023-03-29T09:27:25;10.10;81.50
15099;DHT22;33900;53.640;9.942;2023-03-29T09:30:03;10.10;81.40
15099;DHT22;33900;53.640;9.942;2023-03-29T09:32:49;10.10;81.40
15099;DHT22;33900;53.640;9.942;2023-03-29T09:35:23;10.10;81.50
15099;DHT22;33900;53.640;9.942;2023-03-29T09:37:51;10.10;81.50
15099;DHT22;33900;53.640;9.942;2023-03-29T09:40:19;10.10;81.50
15099;DHT22;33900;53.640;9.942;2023-03-29T09:42:59;10.20;81.50
15099;DHT22;33900;53.640;9.942;2023-03-29T09:45:26;10.20;81.40
15099;DHT22;33900;53.640;9.942;2023-03-29T09:47:56;10.20;81.50
15099;DHT22;33900;53.640;9.942;2023-03-29T09:50:31;10.20;81.50
15099;DHT22;33900;53.640;9.942;2023-03-29T09:53:02;10.20;81.70
15099;DHT22;33900;53.640;9.942;2023-03-29T09:55:33;10.30;81.60
15099;DHT22;33900;53.640;9.942;2023-03-29T09:58:14;10.30;81.60
15099;DHT22;33900;53.640;9.942;2023-03-29T10:00:44;10.30;81.50
15099;DHT22;33900;53.640;9.942;2023-03-29T10:06:11;10.40;81.40
15099;DHT22;33900;53.640;9.942;2023-03-29T10:08:42;10.50;81.50
15099;DHT22;33900;53.640;9.942;2023-03-29T10:11:12;10.50;81.40
15099;DHT22;33900;53.640;9.942;2023-03-29T10:13:43;10.50;81.40
15099;DHT22;33900;53.640;9.942;2023-03-29T10:16:23;10.60;81.40
15099;DHT22;33900;53.640;9.942;2023-03-29T10:21:46;10.60;81.20
15099;DHT22;33900;53.640;9.942;2023-03-29T10:24:16;10.70;81.20
15099;DHT22;33900;53.640;9.942;2023-03-29T10:26:42;10.70;81.20
15099;DHT22;33900;53.640;9.942;2023-03-29T10:29:09;10.70;81.00
15099;DHT22;33900;53.640;9.942;2023-03-29T10:31:36;10.70;80.90
15099;DHT22;33900;53.640;9.942;2023-03-29T10:34:05;10.80;80.80
15099;DHT22;33900;53.640;9.942;2023-03-29T10:36:32;10.80;80.90
15099;DHT22;33900;53.640;9.942;2023-03-29T10:38:59;10.80;80.90
15099;DHT22;33900;53.640;9.942;2023-03-29T10:41:25;10.80;81.00
15099;DHT22;33900;53.640;9.942;2023-03-29T10:43:54;10.80;81.00
15099;DHT22;33900;53.640;9.942;2023-03-29T10:46:21;10.90;81.00
15099;DHT22;33900;53.640;9.942;2023-03-29T10:48:50;10.90;81.00
15099;DHT22;33900;53.640;9.942;2023-03-29T10:51:17;10.90;81.00
15099;DHT22;33900;53.640;9.942;2023-03-29T10:53:43;11.00;81.10
15099;DHT22;33900;53.640;9.942;2023-03-29T10:56:25;11.00;81.10
15099;DHT22;33900;53.640;9.942;2023-03-29T11:04:03;11.00;81.20
15099;DHT22;33900;53.640;9.942;2023-03-29T11:06:35;11.00;81.20
15099;DHT22;33900;53.640;9.942;2023-03-29T11:11:56;11.10;81.30
15099;DHT22;33900;53.640;9.942;2023-03-29T11:22:28;11.20;81.50
15099;DHT22;33900;53.640;9.942;2023-03-29T11:28:08;11.20;81.20
15099;DHT22;33900;53.640;9.942;2023-03-29T11:30:43;11.20;81.20
15099;DHT22;33900;53.640;9.942;2023-03-29T11:35:44;11.20;81.40
15099;DHT22;33900;53.640;9.942;2023-03-29T11:43:23;11.20;81.50
15099;DHT22;33900;53.640;9.942;2023-03-29T11:45:52;11.20;81.50
15099;DHT22;33900;53.640;9.942;2023-03-29T11:48:21;11.20;81.50
15099;DHT22;33900;53.640;9.942;2023-03-29T11:53:38;11.20;81.60
15099;DHT22;33900;53.640;9.942;2023-03-29T11:56:09;11.20;81.60
15099;DHT22;33900;53.640;9.942;2023-03-29T11:59:02;11.20;81.80
15099;DHT22;33900;53.640;9.942;2023-03-29T12:01:34;11.20;81.70
15099;DHT22;33900;53.640;9.942;2023-03-29T12:04:04;11.20;81.80
15099;DHT22;33900;53.640;9.942;2023-03-29T12:09:06;11.20;81.80
15099;DHT22;33900;53.640;9.942;2023-03-29T12:14:02;11.30;81.80
15099;DHT22;33900;53.640;9.942;2023-03-29T12:16:30;11.30;81.70
15099;DHT22;33900;53.640;9.942;2023-03-29T12:19:02;11.30;81.70
15099;DHT22;33900;53.640;9.942;2023-03-29T12:21:30;11.30;81.60
15099;DHT22;33900;53.640;9.942;2023-03-29T12:23:57;11.40;82.40
15099;DHT22;33900;53.640;9.942;2023-03-29T12:29:40;11.40;81.60
15099;DHT22;33900;53.640;9.942;2023-03-29T12:39:49;11.50;81.70
15099;DHT22;33900;53.640;9.942;2023-03-29T12:42:41;11.50;81.40
15099;DHT22;33900;53.640;9.942;2023-03-29T12:45:41;11.50;81.30
15099;DHT22;33900;53.640;9.942;2023-03-29T12:48:13;11.50;81.30
15099;DHT22;33900;53.640;9.942;2023-03-29T12:50:57;11.50;81.40
15099;DHT22;33900;53.640;9.942;2023-03-29T12:53:30;11.60;81.40
15099;DHT22;33900;53.640;9.942;2023-03-29T13:01:30;11.70;81.70
15099;DHT22;33900;53.640;9.942;2023-03-29T13:06:26;11.80;81.60
15099;DHT22;33900;53.640;9.942;2023-03-29T13:09:03;11.90;81.70
15099;DHT22;33900;53.640;9.942;2023-03-29T13:13:55;11.90;81.70
15099;DHT22;33900;53.640;9.942;2023-03-29T13:16:29;11.90;81.80
15099;DHT22;33900;53.640;9.942;2023-03-29T13:18:58;12.00;81.70
15099;DHT22;33900;53.640;9.942;2023-03-29T13:24:05;12.10;81.60
15099;DHT22;33900;53.640;9.942;2023-03-29T13:37:12;12.20;82.00
15099;DHT22;33900;53.640;9.942;2023-03-29T13:39:52;12.20;82.10
15099;DHT22;33900;53.640;9.942;2023-03-29T13:44:50;12.30;81.90
15099;DHT22;33900;53.640;9.942;2023-03-29T13:50:04;12.30;81.90
15099;DHT22;33900;53.640;9.942;2023-03-29T13:52:35;12.40;82.00
15099;DHT22;33900;53.640;9.942;2023-03-29T13:55:04;12.50;82.10
15099;DHT22;33900;53.640;9.942;2023-03-29T13:57:43;12.60;82.10
15099;DHT22;33900;53.640;9.942;2023-03-29T14:00:14;12.60;82.20
15099;DHT22;33900;53.640;9.942;2023-03-29T14:02:43;12.70;82.40
15099;DHT22;33900;53.640;9.942;2023-03-29T14:05:11;12.70;82.70
15099;DHT22;33900;53.640;9.942;2023-03-29T14:07:38;12.80;82.70
15099;DHT22;33900;53.640;9.942;2023-03-29T14:10:06;12.80;82.20
15099;DHT22;33900;53.640;9.942;2023-03-29T14:12:34;12.80;82.30
15099;DHT22;33900;53.640;9.942;2023-03-29T14:15:00;12.90;82.20
15099;DHT22;33900;53.640;9.942;2023-03-29T14:17:28;12.90;82.80
15099;DHT22;33900;53.640;9.942;2023-03-29T14:19:55;13.00;82.10
15099;DHT22;33900;53.640;9.942;2023-03-29T14:22:22;13.00;82.10
15099;DHT22;33900;53.640;9.942;2023-03-29T14:24:51;13.00;82.20
15099;DHT22;33900;53.640;9.942;2023-03-29T14:27:18;13.00;82.00
15099;DHT22;33900;53.640;9.942;2023-03-29T14:29:45;13.00;82.00
15099;DHT22;33900;53.640;9.942;2023-03-29T14:32:15;13.10;82.10
15099;DHT22;33900;53.640;9.942;2023-03-29T14:34:42;13.00;82.00
15099;DHT22;33900;53.640;9.942;2023-03-29T14:37:11;13.00;82.00
15099;DHT22;33900;53.640;9.942;2023-03-29T14:39:38;13.00;82.10
15099;DHT22;33900;53.640;9.942;2023-03-29T14:42:09;13.00;82.20
15099;DHT22;33900;53.640;9.942;2023-03-29T14:44:36;13.00;83.00
15099;DHT22;33900;53.640;9.942;2023-03-29T14:47:01;13.00;82.20
15099;DHT22;33900;53.640;9.942;2023-03-29T14:49:28;13.00;82.30
15099;DHT22;33900;53.640;9.942;2023-03-29T14:51:53;13.00;82.50
15099;DHT22;33900;53.640;9.942;2023-03-29T14:54:21;13.00;82.60
15099;DHT22;33900;53.640;9.942;2023-03-29T14:56:48;13.00;83.40
15099;DHT22;33900;53.640;9.942;2023-03-29T14:59:15;13.00;82.60
15099;DHT22;33900;53.640;9.942;2023-03-29T15:01:45;13.00;82.80
15099;DHT22;33900;53.640;9.942;2023-03-29T15:04:11;12.90;82.70
15099;DHT22;33900;53.640;9.942;2023-03-29T15:06:37;12.90;82.70
15099;DHT22;33900;53.640;9.942;2023-03-29T15:09:05;12.90;82.70
15099;DHT22;33900;53.640;9.942;2023-03-29T15:11:31;12.90;82.70
15099;DHT22;33900;53.640;9.942;2023-03-29T15:13:59;13.00;83.60
15099;DHT22;33900;53.640;9.942;2023-03-29T15:16:27;12.90;82.80
15099;DHT22;33900;53.640;9.942;2023-03-29T15:18:54;12.90;82.70
15099;DHT22;33900;53.640;9.942;2023-03-29T15:21:20;12.90;82.70
15099;DHT22;33900;53.640;9.942;2023-03-29T15:23:49;12.90;82.80
15099;DHT22;33900;53.640;9.942;2023-03-29T15:26:19;12.90;82.70
15099;DHT22;33900;53.640;9.942;2023-03-29T15:28:47;12.90;82.50
15099;DHT22;33900;53.640;9.942;2023-03-29T15:31:17;12.90;82.50
15099;DHT22;33900;53.640;9.942;2023-03-29T15:33:43;12.90;82.40
15099;DHT22;33900;53.640;9.942;2023-03-29T15:36:09;12.90;82.30
15099;DHT22;33900;53.640;9.942;2023-03-29T15:38:36;12.90;82.40
15099;DHT22;33900;53.640;9.942;2023-03-29T15:41:02;12.90;82.40
15099;DHT22;33900;53.640;9.942;2023-03-29T15:43:28;12.90;82.40
15099;DHT22;33900;53.640;9.942;2023-03-29T15:45:55;12.90;82.50
15099;DHT22;33900;53.640;9.942;2023-03-29T15:48:22;12.90;82.50
15099;DHT22;33900;53.640;9.942;2023-03-29T15:50:48;12.90;82.60
15099;DHT22;33900;53.640;9.942;2023-03-29T15:53:13;12.80;82.60
15099;DHT22;33900;53.640;9.942;2023-03-29T15:55:48;12.80;82.60
15099;DHT22;33900;53.640;9.942;2023-03-29T15:58:15;12.90;82.70
15099;DHT22;33900;53.640;9.942;2023-03-29T16:00:42;12.90;82.70
15099;DHT22;33900;53.640;9.942;2023-03-29T16:03:12;12.90;82.50
15099;DHT22;33900;53.640;9.942;2023-03-29T16:05:40;12.90;82.50
15099;DHT22;33900;53.640;9.942;2023-03-29T16:08:07;12.90;82.50
15099;DHT22;33900;53.640;9.942;2023-03-29T16:10:33;12.80;82.50
15099;DHT22;33900;53.640;9.942;2023-03-29T16:12:58;12.80;82.50
15099;DHT22;33900;53.640;9.942;2023-03-29T16:15:24;12.80;82.60
15099;DHT22;33900;53.640;9.942;2023-03-29T16:17:51;12.80;82.70
15099;DHT22;33900;53.640;9.942;2023-03-29T16:20:17;12.80;82.70
15099;DHT22;33900;53.640;9.942;2023-03-29T16:22:45;12.80;82.70
15099;DHT22;33900;53.640;9.942;2023-03-29T16:25:12;12.80;82.90
15099;DHT22;33900;53.640;9.942;2023-03-29T16:27:39;12.80;82.70
15099;DHT22;33900;53.640;9.942;2023-03-29T16:30:05;12.80;82.70
15099;DHT22;33900;53.640;9.942;2023-03-29T16:32:30;12.80;82.70
15099;DHT22;33900;53.640;9.942;2023-03-29T16:34:56;12.80;82.70
15099;DHT22;33900;53.640;9.942;2023-03-29T16:37:22;12.80;82.90
15099;DHT22;33900;53.640;9.942;2023-03-29T16:39:48;12.80;82.70
15099;DHT22;33900;53.640;9.942;2023-03-29T16:42:13;12.80;82.80
15099;DHT22;33900;53.640;9.942;2023-03-29T16:44:39;12.80;82.90
15099;DHT22;33900;53.640;9.942;2023-03-29T16:47:05;12.80;82.80
15099;DHT22;33900;53.640;9.942;2023-03-29T16:49:31;12.80;82.80
15099;DHT22;33900;53.640;9.942;2023-03-29T16:51:56;12.80;82.80
15099;DHT22;33900;53.640;9.942;2023-03-29T16:54:24;12.80;82.80
15099;DHT22;33900;53.640;9.942;2023-03-29T16:56:50;12.80;82.70
15099;DHT22;33900;53.640;9.942;2023-03-29T16:59:16;12.80;82.80
15099;DHT22;33900;53.640;9.942;2023-03-29T17:01:42;12.80;82.70
15099;DHT22;33900;53.640;9.942;2023-03-29T17:04:07;12.80;82.80
15099;DHT22;33900;53.640;9.942;2023-03-29T17:06:33;12.80;82.90
15099;DHT22;33900;53.640;9.942;2023-03-29T17:08:59;12.80;82.80
15099;DHT22;33900;53.640;9.942;2023-03-29T17:11:25;12.80;82.90
15099;DHT22;33900;53.640;9.942;2023-03-29T17:13:51;12.80;82.90
15099;DHT22;33900;53.640;9.942;2023-03-29T17:16:16;12.80;82.90
15099;DHT22;33900;53.640;9.942;2023-03-29T17:18:42;12.80;82.80
15099;DHT22;33900;53.640;9.942;2023-03-29T17:21:08;12.80;82.90
15099;DHT22;33900;53.640;9.942;2023-03-29T17:23:33;12.80;82.90
15099;DHT22;33900;53.640;9.942;2023-03-29T17:25:59;12.80;82.90
15099;DHT22;33900;53.640;9.942;2023-03-29T17:28:25;12.80;82.90
15099;DHT22;33900;53.640;9.942;2023-03-29T17:30:50;12.80;82.90
15099;DHT22;33900;53.640;9.942;2023-03-29T17:33:16;12.80;82.90
15099;DHT22;33900;53.640;9.942;2023-03-29T17:35:45;12.90;83.10
15099;DHT22;33900;53.640;9.942;2023-03-29T17:38:11;12.80;82.90
15099;DHT22;33900;53.640;9.942;2023-03-29T17:40:36;12.80;82.90
15099;DHT22;33900;53.640;9.942;2023-03-29T17:43:02;12.80;82.90
15099;DHT22;33900;53.640;9.942;2023-03-29T17:45:28;12.80;82.90
15099;DHT22;33900;53.640;9.942;2023-03-29T17:47:53;12.80;82.80
15099;DHT22;33900;53.640;9.942;2023-03-29T17:50:19;12.90;82.80
15099;DHT22;33900;53.640;9.942;2023-03-29T17:52:45;12.80;82.70
15099;DHT22;33900;53.640;9.942;2023-03-29T17:55:11;12.80;82.70
15099;DHT22;33900;53.640;9.942;2023-03-29T17:57:40;12.80;82.70
15099;DHT22;33900;53.640;9.942;2023-03-29T18:00:07;12.80;82.70
15099;DHT22;33900;53.640;9.942;2023-03-29T18:02:33;12.80;82.90
15099;DHT22;33900;53.640;9.942;2023-03-29T18:04:59;12.80;82.90
15099;DHT22;33900;53.640;9.942;2023-03-29T18:07:28;12.80;82.90